Archival Weather

Norman Y Mineta San Jose Intl

San Jose, California (KSJC)

Report from: Wednesday, January 31, 2024 8:53 AM PST
Current time: Monday, June 24, 2024 2:14 AM PDT

Current weather – Weather history – Daily summaries
Weather forecast

Temperature16.1°C (61.0°F)
Dew point5.0°C (41.0°F)
Winds 12 kts (6.2 m/s, 13.8 mph) Vrb
Wind gusts 23 kts (11.8 m/s, 26.5 mph)
Winds variableWinds variable from East (90°) to South (180°)
Visibility10 mi. (16.1 km)
Clouds Few clouds 1,800 ft. (549 m)
Ceiling: Broken clouds 8,000 ft. (2,438 m)
Overcast 12,000 ft. (3,658 m)
Altimeter29.80 in.Hg (1009 mB)
Relative humidity48 %
Density altitude406 ft. (124 m)
Sea-level pressure100.9 kPa (1009 mB, 29.79 in.Hg)
Remarks System requires maintenance
Automated weather observing station with precipitation discriminator
Virga observed southeast and west
Flight conditions Visual Meteorological Conditions
Raw dataKSJC 311653Z 14012G23KT 090V180 10SM FEW018 BKN080 OVC120 16/05 A2980 RMK AO2 SLP089 VIRGA SE AND W T01610050 $
An error has occurred. This application may no longer respond until reloaded. Reload 🗙